createdAt,value
2018-12-02T00:02:29.649Z,173.68
2018-12-02T00:04:59.736Z,162.30
2018-12-02T00:07:30.407Z,197.87
2018-12-02T00:10:01.727Z,189.18
2018-12-02T00:12:33.635Z,188.40
2018-12-02T00:15:05.738Z,195.50
2018-12-02T00:17:37.828Z,208.70
2018-12-02T00:20:13.690Z,185.60
2018-12-02T00:22:44.765Z,174.20
2018-12-02T00:25:18.704Z,180.80
2018-12-02T00:27:53.889Z,140.83
2018-12-02T00:30:28.005Z,156.33
2018-12-02T00:33:00.157Z,156.73
2018-12-02T00:35:32.936Z,174.43
2018-12-02T00:38:04.968Z,151.35
2018-12-02T00:40:37.470Z,164.53
2018-12-02T00:43:08.774Z,156.00
2018-12-02T00:45:39.059Z,208.17
2018-12-02T00:48:09.823Z,170.47
2018-12-02T00:50:39.904Z,142.80
2018-12-02T00:53:10.539Z,170.25
2018-12-02T00:55:44.383Z,159.03
2018-12-02T00:58:15.459Z,149.10
2018-12-02T01:00:45.998Z,182.40
2018-12-02T01:03:19.042Z,170.70
2018-12-02T01:05:50.103Z,166.27
2018-12-02T01:08:25.935Z,180.77
2018-12-02T01:10:57.085Z,223.23
2018-12-02T01:13:28.974Z,165.22
2018-12-02T01:15:59.134Z,196.10
2018-12-02T01:18:31.383Z,188.62
2018-12-02T01:21:03.070Z,200.53
2018-12-02T01:23:33.922Z,195.17
2018-12-02T01:26:04.142Z,184.47
2018-12-02T01:28:38.200Z,197.30
2018-12-02T01:31:12.308Z,190.62
2018-12-02T01:33:45.136Z,162.40
2018-12-02T01:36:16.059Z,174.18
2018-12-02T01:38:46.203Z,166.10
2018-12-02T01:41:19.210Z,181.18
2018-12-02T01:43:50.178Z,183.37
2018-12-02T01:46:21.260Z,197.23
2018-12-02T01:48:54.344Z,206.43
2018-12-02T01:51:24.953Z,180.40
2018-12-02T01:53:55.287Z,170.37
2018-12-02T01:56:38.406Z,172.43
2018-12-02T01:59:15.473Z,191.10
2018-12-02T02:01:54.253Z,166.28
2018-12-02T02:04:26.486Z,164.30
2018-12-02T02:07:02.321Z,150.10
2018-12-02T02:09:32.411Z,171.63
2018-12-02T02:12:03.348Z,145.57
2018-12-02T02:14:35.403Z,151.53
2018-12-02T02:17:08.017Z,159.10
2018-12-02T02:19:38.484Z,161.00
2018-12-02T02:22:09.502Z,140.30
2018-12-02T02:24:40.442Z,151.63
2018-12-02T02:27:13.468Z,145.50
2018-12-02T02:29:50.934Z,142.23
2018-12-02T02:32:21.561Z,153.03
2018-12-02T02:34:51.899Z,154.07
2018-12-02T02:37:22.358Z,156.40
2018-12-02T02:39:52.981Z,166.17
2018-12-02T02:42:23.417Z,161.23
2018-12-02T02:44:54.144Z,152.33
2018-12-02T02:47:24.748Z,144.93
2018-12-02T02:49:55.181Z,147.30
2018-12-02T02:52:25.730Z,143.03
2018-12-02T02:54:56.314Z,145.13
2018-12-02T02:57:26.533Z,163.07
2018-12-02T03:00:12.900Z,135.55
2018-12-02T03:02:43.009Z,153.82
2018-12-02T03:05:15.386Z,152.17
2018-12-02T03:07:47.696Z,148.23
2018-12-02T03:10:21.370Z,144.83
2018-12-02T03:12:52.733Z,178.45
2018-12-02T03:15:23.621Z,155.97
2018-12-02T03:17:56.007Z,138.23
2018-12-02T03:20:26.663Z,147.77
2018-12-02T03:22:57.748Z,147.53
2018-12-02T03:25:34.037Z,133.60
2018-12-02T03:28:04.721Z,158.78
2018-12-02T03:30:35.942Z,136.50
2018-12-02T03:33:06.838Z,123.13
2018-12-02T03:35:37.114Z,147.67
2018-12-02T03:38:13.921Z,159.13
2018-12-02T03:40:44.958Z,137.63
2018-12-02T03:43:18.041Z,126.90
2018-12-02T03:45:48.712Z,133.83
2018-12-02T03:48:19.584Z,147.40
2018-12-02T03:50:49.797Z,143.07
2018-12-02T03:53:26.307Z,144.20
2018-12-02T03:55:56.925Z,132.87
2018-12-02T03:58:27.385Z,148.77
2018-12-02T04:00:57.981Z,146.45
2018-12-02T04:03:34.644Z,138.50
2018-12-02T04:06:04.935Z,149.90
2018-12-02T04:08:35.853Z,152.97
2018-12-02T04:11:06.397Z,146.63
2018-12-02T04:13:37.128Z,127.50
2018-12-02T04:16:09.937Z,139.27
2018-12-02T04:18:46.979Z,134.00
2018-12-02T04:21:17.855Z,142.73
2018-12-02T04:23:48.555Z,114.30
2018-12-02T04:26:19.150Z,119.70
2018-12-02T04:28:49.735Z,126.27
2018-12-02T04:31:19.980Z,135.37
2018-12-02T04:33:57.347Z,175.70
2018-12-02T04:36:30.085Z,135.50
2018-12-02T04:39:09.099Z,159.37
2018-12-02T04:41:46.948Z,147.60
2018-12-02T04:44:17.949Z,154.37
2018-12-02T04:46:49.086Z,185.67
2018-12-02T04:49:23.006Z,179.70
2018-12-02T04:51:53.055Z,174.63
2018-12-02T04:54:23.561Z,183.20
2018-12-02T04:56:55.112Z,187.87
2018-12-02T04:59:27.130Z,184.00
2018-12-02T05:01:57.990Z,177.17
2018-12-02T05:04:29.246Z,196.93
2018-12-02T05:06:59.881Z,165.90
2018-12-02T05:09:30.614Z,173.83
2018-12-02T05:12:01.960Z,186.07
2018-12-02T05:14:35.712Z,188.90
2018-12-02T05:17:08.405Z,154.80
2018-12-02T05:19:41.930Z,159.47
2018-12-02T05:22:12.447Z,153.18
2018-12-02T05:24:46.233Z,157.77
2018-12-02T05:27:20.855Z,162.13
2018-12-02T05:29:52.410Z,171.30
2018-12-02T05:32:23.496Z,165.17
2018-12-02T05:34:57.252Z,152.20
2018-12-02T05:37:27.389Z,161.23
2018-12-02T05:39:57.503Z,162.20
2018-12-02T05:42:32.345Z,166.97
2018-12-02T05:45:04.603Z,175.80
2018-12-02T05:47:38.665Z,172.40
2018-12-02T05:50:13.255Z,176.93
2018-12-02T05:52:47.051Z,180.43
2018-12-02T05:55:21.768Z,151.00
2018-12-02T05:57:53.315Z,159.17
2018-12-02T06:00:23.919Z,179.35
2018-12-02T06:02:54.542Z,148.97
2018-12-02T06:05:27.414Z,157.73
2018-12-02T06:08:03.469Z,179.43
2018-12-02T06:10:37.247Z,162.70
2018-12-02T06:13:09.506Z,172.90
2018-12-02T06:15:40.557Z,151.47
2018-12-02T06:18:13.535Z,141.53
2018-12-02T06:20:44.588Z,154.87
2018-12-02T06:23:23.404Z,138.60
2018-12-02T06:25:54.865Z,120.95
2018-12-02T06:28:27.448Z,126.63
2018-12-02T06:30:58.473Z,113.33
2018-12-02T06:33:33.352Z,114.17
2018-12-02T06:36:08.480Z,117.97
2018-12-02T06:38:38.880Z,121.93
2018-12-02T06:41:09.738Z,122.78
2018-12-02T06:43:42.593Z,131.33
2018-12-02T06:46:13.636Z,121.80
2018-12-02T06:48:47.612Z,120.65
2018-12-02T06:51:23.704Z,127.07
2018-12-02T06:53:54.120Z,119.33
2018-12-02T06:56:39.021Z,128.82
2018-12-02T06:59:24.996Z,130.17
2018-12-02T07:02:10.076Z,118.62
2018-12-02T07:04:42.910Z,108.33
2018-12-02T07:07:14.685Z,115.87
2018-12-02T07:09:45.703Z,104.83
2018-12-02T07:12:22.497Z,101.42
2018-12-02T07:14:52.723Z,109.97
2018-12-02T07:17:26.841Z,96.93
2018-12-02T07:20:02.043Z,99.87
2018-12-02T07:22:37.690Z,93.67
2018-12-02T07:25:12.754Z,79.77
2018-12-02T07:27:43.811Z,76.47
2018-12-02T07:30:14.989Z,82.53
2018-12-02T07:32:45.781Z,79.27
2018-12-02T07:35:16.993Z,87.03
2018-12-02T07:37:50.600Z,86.90
2018-12-02T07:40:27.071Z,77.67
2018-12-02T07:42:59.932Z,82.45
2018-12-02T07:45:30.183Z,82.75
2018-12-02T07:48:00.985Z,81.53
2018-12-02T07:50:31.352Z,80.83
2018-12-02T07:53:02.008Z,69.57
2018-12-02T07:55:33.096Z,73.30
2018-12-02T07:58:03.277Z,71.53
2018-12-02T08:00:33.873Z,76.10
2018-12-02T08:03:04.149Z,70.67
2018-12-02T08:05:35.054Z,70.83
2018-12-02T08:08:06.400Z,75.73
2018-12-02T08:10:39.191Z,81.80
2018-12-02T08:13:10.112Z,83.25
2018-12-02T08:15:43.029Z,92.75
2018-12-02T08:18:13.797Z,75.57
2018-12-02T08:20:44.214Z,85.20
2018-12-02T08:23:15.080Z,96.03
2018-12-02T08:25:45.845Z,97.22
2018-12-02T08:28:16.289Z,97.43
2018-12-02T08:30:46.797Z,97.60
2018-12-02T08:33:17.644Z,103.20
2018-12-02T08:35:48.153Z,95.03
2018-12-02T08:38:18.583Z,92.20
2018-12-02T08:40:49.119Z,87.83
2018-12-02T08:43:20.176Z,92.50
2018-12-02T08:45:50.632Z,95.57
2018-12-02T08:48:21.368Z,84.53
2018-12-02T08:50:51.990Z,95.73
2018-12-02T08:53:22.327Z,89.05
2018-12-02T08:55:53.236Z,103.87
2018-12-02T08:58:23.967Z,106.87
2018-12-02T09:00:58.071Z,108.03
2018-12-02T09:03:28.257Z,110.65
2018-12-02T09:06:00.150Z,119.07
2018-12-02T09:08:32.176Z,109.47
2018-12-02T09:11:03.228Z,118.50
2018-12-02T09:13:36.530Z,112.00
2018-12-02T09:16:09.027Z,110.03
2018-12-02T09:18:39.279Z,104.00
2018-12-02T09:21:13.270Z,113.12
2018-12-02T09:23:47.432Z,105.53
2018-12-02T09:26:14.538Z,102.27
2018-12-02T09:28:45.603Z,112.87
2018-12-02T09:31:15.708Z,115.73
2018-12-02T09:33:46.627Z,110.97
2018-12-02T09:36:16.890Z,115.67
2018-12-02T09:38:47.562Z,113.00
2018-12-02T09:41:18.383Z,115.15
2018-12-02T09:43:48.905Z,122.33
2018-12-02T09:46:19.255Z,136.13
2018-12-02T09:48:50.176Z,120.03
2018-12-02T09:51:20.449Z,112.57
2018-12-02T09:53:51.261Z,119.67
2018-12-02T09:56:21.737Z,119.65
2018-12-02T09:58:53.261Z,118.63
2018-12-02T10:01:23.371Z,120.62
2018-12-02T10:03:53.467Z,119.53
2018-12-02T10:06:24.169Z,126.80
2018-12-02T10:08:54.735Z,128.03
2018-12-02T10:11:25.054Z,112.20
2018-12-02T10:13:56.568Z,116.60
2018-12-02T10:16:27.237Z,121.10
2018-12-02T10:18:57.529Z,127.83
2018-12-02T10:21:27.934Z,134.70
2018-12-02T10:23:58.872Z,109.33
2018-12-02T10:26:29.581Z,121.20
2018-12-02T10:28:59.904Z,128.30
2018-12-02T10:31:30.464Z,126.27
2018-12-02T10:34:00.847Z,125.87
2018-12-02T10:36:31.067Z,129.20
2018-12-02T10:39:01.464Z,133.03
2018-12-02T10:41:32.085Z,135.60
2018-12-02T10:44:02.529Z,139.00
2018-12-02T10:46:32.823Z,129.82
2018-12-02T10:49:03.820Z,138.43
2018-12-02T10:51:35.689Z,127.17
2018-12-02T10:54:11.176Z,132.47
2018-12-02T10:56:43.862Z,121.73
2018-12-02T10:59:14.934Z,152.37
2018-12-02T11:01:47.077Z,140.35
2018-12-02T11:04:18.893Z,141.00
2018-12-02T11:06:50.320Z,127.27
2018-12-02T11:09:22.501Z,130.80
2018-12-02T11:11:52.942Z,114.23
2018-12-02T11:14:24.060Z,128.57
2018-12-02T11:16:54.645Z,134.07
2018-12-02T11:19:24.871Z,130.40
2018-12-02T11:21:55.962Z,131.10
2018-12-02T11:24:26.555Z,125.18
2018-12-02T11:26:57.351Z,119.17
2018-12-02T11:29:27.780Z,124.13
2018-12-02T11:31:59.562Z,123.43
2018-12-02T11:34:29.741Z,119.97
2018-12-02T11:36:59.839Z,126.50
2018-12-02T11:39:30.872Z,121.57
2018-12-02T11:42:01.201Z,124.67
2018-12-02T11:44:31.362Z,130.60
2018-12-02T11:47:01.909Z,131.43
2018-12-02T11:49:32.612Z,138.57
2018-12-02T11:52:03.206Z,138.90
2018-12-02T11:54:33.650Z,134.67
2018-12-02T11:57:03.840Z,128.60
2018-12-02T11:59:34.763Z,150.90
2018-12-02T12:02:07.634Z,148.57
2018-12-02T12:04:35.697Z,147.90
2018-12-02T12:07:06.627Z,158.20
2018-12-02T12:09:36.887Z,169.60
2018-12-02T12:12:07.283Z,147.70
2018-12-02T12:14:37.636Z,152.20
2018-12-02T12:17:08.605Z,161.00
2018-12-02T12:19:38.949Z,145.12
2018-12-02T12:22:09.408Z,150.90
2018-12-02T12:24:40.119Z,171.77
2018-12-02T12:27:10.397Z,154.60
2018-12-02T12:29:41.502Z,153.03
2018-12-02T12:32:11.764Z,156.80
2018-12-02T12:34:45.405Z,167.77
2018-12-02T12:37:17.696Z,137.05
2018-12-02T12:39:49.524Z,159.70
2018-12-02T12:42:20.279Z,153.37
2018-12-02T12:44:53.134Z,151.53
2018-12-02T12:47:24.223Z,153.47
2018-12-02T12:49:54.426Z,151.20
2018-12-02T12:52:24.654Z,157.62
2018-12-02T12:54:56.439Z,138.93
2018-12-02T12:57:32.816Z,147.57
2018-12-02T13:00:04.387Z,153.70
2018-12-02T13:02:34.432Z,150.00
2018-12-02T13:05:05.484Z,154.47
2018-12-02T13:07:36.017Z,149.40
2018-12-02T13:10:15.335Z,139.47
2018-12-02T13:12:48.415Z,151.77
2018-12-02T13:15:22.585Z,137.20
2018-12-02T13:18:01.926Z,147.53
2018-12-02T13:20:44.523Z,149.07
2018-12-02T13:23:17.570Z,145.13
2018-12-02T13:25:49.718Z,150.10
2018-12-02T13:28:24.062Z,143.20
2018-12-02T13:30:56.167Z,156.43
2018-12-02T13:33:26.333Z,156.82
2018-12-02T13:35:56.458Z,167.13
2018-12-02T13:38:27.025Z,166.03
2018-12-02T13:40:57.587Z,152.30
2018-12-02T13:43:28.740Z,171.90
2018-12-02T13:45:58.877Z,166.53
2018-12-02T13:48:30.392Z,172.97
2018-12-02T13:51:00.547Z,166.87
2018-12-02T13:53:31.003Z,166.70
2018-12-02T13:56:01.244Z,159.40
2018-12-02T13:58:33.175Z,191.10
2018-12-02T14:01:05.929Z,227.70
2018-12-02T14:03:38.993Z,186.87
2018-12-02T14:06:09.748Z,158.93
2018-12-02T14:08:45.643Z,164.33
2018-12-02T14:11:16.772Z,153.80
2018-12-02T14:13:48.810Z,180.70
2018-12-02T14:16:28.763Z,188.33
2018-12-02T14:19:08.609Z,179.68
2018-12-02T14:21:40.771Z,267.37
2018-12-02T14:24:15.843Z,220.97
2018-12-02T14:26:49.475Z,232.20
2018-12-02T14:29:29.607Z,197.80
2018-12-02T14:32:04.407Z,199.65
2018-12-02T14:34:34.901Z,183.43
2018-12-02T14:37:12.063Z,168.93
2018-12-02T14:39:42.659Z,192.00
2018-12-02T14:42:13.387Z,192.17
2018-12-02T14:44:43.797Z,189.17
2018-12-02T14:47:14.107Z,184.25
2018-12-02T14:49:44.540Z,170.03
2018-12-02T14:52:14.910Z,168.87
2018-12-02T14:54:45.708Z,164.30
2018-12-02T14:57:16.218Z,175.73
2018-12-02T14:59:46.798Z,157.62
2018-12-02T15:02:17.345Z,167.05
2018-12-02T15:04:47.483Z,168.87
2018-12-02T15:07:17.697Z,163.67
2018-12-02T15:09:51.975Z,165.03
2018-12-02T15:12:23.112Z,174.33
2018-12-02T15:14:53.735Z,176.93
2018-12-02T15:17:24.258Z,175.27
2018-12-02T15:19:54.507Z,182.62
2018-12-02T15:22:24.888Z,170.63
2018-12-02T15:24:55.399Z,170.00
2018-12-02T15:27:25.788Z,170.68
2018-12-02T15:29:56.137Z,185.20
2018-12-02T15:32:26.584Z,166.17
2018-12-02T15:34:56.813Z,165.37
2018-12-02T15:37:27.016Z,168.27
2018-12-02T15:39:57.967Z,164.83
2018-12-02T15:42:28.630Z,166.77
2018-12-02T15:44:58.943Z,186.63
2018-12-02T15:47:29.536Z,182.60
2018-12-02T15:49:59.865Z,189.10
2018-12-02T15:52:30.622Z,185.90
2018-12-02T15:55:01.178Z,184.85
2018-12-02T15:57:31.430Z,182.57
2018-12-02T16:00:01.638Z,175.25
2018-12-02T16:02:32.059Z,159.55
2018-12-02T16:05:02.292Z,186.57
2018-12-02T16:07:33.759Z,182.47
2018-12-02T16:10:04.350Z,179.95
2018-12-02T16:12:35.199Z,181.97
2018-12-02T16:15:09.550Z,179.17
2018-12-02T16:17:40.816Z,176.60
2018-12-02T16:20:29.291Z,206.33
2018-12-02T16:22:59.578Z,204.20
2018-12-02T16:25:29.917Z,210.15
2018-12-02T16:28:01.851Z,208.03
2018-12-02T16:30:32.418Z,206.13
2018-12-02T16:33:02.564Z,197.67
2018-12-02T16:35:33.979Z,216.50
2018-12-02T16:38:04.191Z,224.83
2018-12-02T16:40:34.560Z,215.43
2018-12-02T16:43:05.671Z,205.37
2018-12-02T16:45:36.495Z,206.23
2018-12-02T16:48:08.444Z,222.20
2018-12-02T16:50:43.571Z,223.00
2018-12-02T16:53:18.461Z,225.83
2018-12-02T16:56:08.504Z,205.23
2018-12-02T16:58:53.473Z,228.17
2018-12-02T17:01:25.075Z,207.87
2018-12-02T17:03:58.004Z,217.00
2018-12-02T17:06:29.070Z,211.97
2018-12-02T17:09:00.368Z,212.07
2018-12-02T17:11:31.209Z,223.97
2018-12-02T17:14:01.404Z,207.77
2018-12-02T17:16:32.404Z,217.87
2018-12-02T17:19:02.762Z,203.83
2018-12-02T17:21:32.959Z,210.23
2018-12-02T17:24:04.582Z,189.70
2018-12-02T17:26:34.879Z,203.47
2018-12-02T17:29:08.879Z,185.20
2018-12-02T17:31:50.793Z,228.40
2018-12-02T17:34:21.439Z,211.77
2018-12-02T17:36:51.956Z,216.57
2018-12-02T17:39:25.131Z,218.27
2018-12-02T17:42:02.186Z,216.97
2018-12-02T17:44:32.897Z,219.70
2018-12-02T17:47:03.446Z,227.95
2018-12-02T17:49:34.110Z,230.63
2018-12-02T17:52:04.608Z,227.20
2018-12-02T17:54:35.759Z,211.47
2018-12-02T17:57:07.309Z,214.10
2018-12-02T17:59:37.515Z,232.80
2018-12-02T18:02:07.947Z,213.25
2018-12-02T18:04:38.111Z,224.03
2018-12-02T18:07:09.485Z,229.47
2018-12-02T18:09:40.586Z,227.05
2018-12-02T18:12:11.585Z,226.17
2018-12-02T18:14:42.134Z,218.53
2018-12-02T18:17:13.622Z,220.97
2018-12-02T18:19:44.925Z,231.93
2018-12-02T18:22:16.264Z,221.63
2018-12-02T18:24:47.220Z,225.17
2018-12-02T18:27:18.649Z,217.32
2018-12-02T18:29:49.364Z,218.77
2018-12-02T18:32:19.543Z,215.90
2018-12-02T18:34:50.289Z,206.73
2018-12-02T18:37:21.401Z,215.47
2018-12-02T18:39:52.606Z,227.47
2018-12-02T18:42:22.790Z,212.97
2018-12-02T18:44:53.941Z,213.63
2018-12-02T18:47:24.706Z,196.35
2018-12-02T18:49:55.010Z,198.87
2018-12-02T18:52:25.207Z,224.67
2018-12-02T18:54:55.489Z,223.73
2018-12-02T18:57:26.024Z,226.73
2018-12-02T18:59:57.128Z,219.95
2018-12-02T19:02:27.598Z,213.75
2018-12-02T19:04:58.033Z,203.13
2018-12-02T19:07:28.132Z,206.23
2018-12-02T19:10:02.533Z,209.13
2018-12-02T19:12:32.908Z,198.30
2018-12-02T19:15:03.140Z,217.93
2018-12-02T19:17:33.394Z,219.13
2018-12-02T19:20:06.394Z,227.07
2018-12-02T19:22:36.532Z,206.47
2018-12-02T19:25:08.935Z,218.12
2018-12-02T19:27:39.617Z,222.53
2018-12-02T19:30:12.964Z,207.83
2018-12-02T19:32:44.291Z,205.70
2018-12-02T19:35:19.865Z,222.30
2018-12-02T19:37:51.928Z,220.83
2018-12-02T19:40:22.076Z,194.20
2018-12-02T19:42:53.326Z,224.12
2018-12-02T19:45:23.489Z,210.90
2018-12-02T19:47:54.014Z,212.63
2018-12-02T19:50:24.508Z,215.47
2018-12-02T19:52:54.996Z,229.97
2018-12-02T19:55:25.371Z,222.40
2018-12-02T19:57:56.429Z,218.17
2018-12-02T20:00:27.365Z,233.93
2018-12-02T20:02:58.023Z,224.92
2018-12-02T20:05:28.275Z,213.40
2018-12-02T20:08:01.566Z,242.60
2018-12-02T20:10:32.456Z,222.63
2018-12-02T20:13:07.092Z,274.40
2018-12-02T20:15:42.239Z,243.13
2018-12-02T20:18:12.408Z,235.60
2018-12-02T20:20:48.067Z,236.47
2018-12-02T20:23:23.989Z,212.90
2018-12-02T20:25:57.197Z,230.67
2018-12-02T20:28:31.193Z,213.60
2018-12-02T20:31:03.923Z,215.63
2018-12-02T20:33:34.907Z,253.77
2018-12-02T20:36:07.217Z,224.23
2018-12-02T20:38:38.092Z,222.47
2018-12-02T20:41:08.903Z,246.23
2018-12-02T20:43:39.254Z,237.02
2018-12-02T20:46:09.465Z,229.20
2018-12-02T20:48:39.588Z,211.50
2018-12-02T20:51:10.146Z,236.25
2018-12-02T20:53:41.399Z,234.50
2018-12-02T20:56:11.606Z,217.87
2018-12-02T20:58:43.151Z,211.57
2018-12-02T21:01:13.555Z,212.00
2018-12-02T21:03:47.058Z,233.77
2018-12-02T21:06:20.301Z,235.13
2018-12-02T21:08:52.144Z,224.47
2018-12-02T21:11:23.090Z,225.68
2018-12-02T21:13:53.805Z,210.93
2018-12-02T21:16:24.655Z,224.37
2018-12-02T21:18:54.862Z,211.33
2018-12-02T21:21:25.136Z,203.40
2018-12-02T21:23:55.697Z,214.53
2018-12-02T21:26:25.872Z,236.20
2018-12-02T21:28:56.748Z,221.90
2018-12-02T21:31:28.419Z,218.35
2018-12-02T21:33:59.700Z,219.70
2018-12-02T21:36:29.821Z,226.33
2018-12-02T21:39:00.057Z,217.53
2018-12-02T21:41:31.344Z,223.65
2018-12-02T21:44:01.958Z,205.30
2018-12-02T21:46:32.409Z,221.63
2018-12-02T21:49:03.486Z,229.93
2018-12-02T21:51:34.712Z,218.37
2018-12-02T21:54:04.916Z,212.50
2018-12-02T21:56:35.007Z,238.07
2018-12-02T21:59:05.671Z,222.77
2018-12-02T22:01:36.016Z,207.67
2018-12-02T22:04:07.336Z,210.87
2018-12-02T22:06:37.420Z,230.57
2018-12-02T22:09:09.043Z,216.93
2018-12-02T22:11:42.343Z,193.57
2018-12-02T22:14:13.182Z,207.17
2018-12-02T22:16:43.368Z,213.10
2018-12-02T22:19:13.654Z,203.50
2018-12-02T22:21:43.777Z,202.23
2018-12-02T22:24:14.056Z,209.43
2018-12-02T22:26:44.677Z,201.60
2018-12-02T22:29:14.881Z,206.30
2018-12-02T22:31:45.027Z,199.43
2018-12-02T22:34:15.220Z,204.60
2018-12-02T22:36:45.373Z,208.73
2018-12-02T22:39:16.377Z,199.67
2018-12-02T22:41:46.753Z,209.03
2018-12-02T22:44:17.304Z,217.00
2018-12-02T22:46:48.049Z,213.20
2018-12-02T22:49:18.213Z,206.63
2018-12-02T22:51:48.855Z,217.43
2018-12-02T22:54:19.606Z,215.80
2018-12-02T22:56:50.076Z,196.30
2018-12-02T22:59:20.262Z,188.00
2018-12-02T23:01:55.584Z,195.12
2018-12-02T23:04:25.887Z,191.17
2018-12-02T23:06:56.499Z,185.93
2018-12-02T23:09:27.440Z,217.80
2018-12-02T23:11:57.655Z,220.23
2018-12-02T23:14:28.503Z,178.23
2018-12-02T23:17:14.193Z,189.43
2018-12-02T23:19:44.812Z,194.90
2018-12-02T23:22:15.501Z,186.17
2018-12-02T23:24:46.428Z,188.10
2018-12-02T23:27:16.668Z,203.07
2018-12-02T23:29:47.543Z,197.83
2018-12-02T23:32:18.051Z,209.70
2018-12-02T23:34:48.212Z,195.62
2018-12-02T23:37:20.610Z,202.03
2018-12-02T23:39:55.706Z,192.60
2018-12-02T23:42:25.836Z,218.45
2018-12-02T23:44:56.717Z,195.83
2018-12-02T23:47:27.640Z,206.37
2018-12-02T23:49:57.959Z,207.97
2018-12-02T23:52:28.071Z,195.55
2018-12-02T23:54:58.384Z,207.60
2018-12-02T23:57:29.378Z,206.93
2018-12-02T23:59:59.868Z,201.18
